sensor_id;sensor_type;location;lat;lon;timestamp;pressure;altitude;pressure_sealevel;temperature;humidity
1401;BME280;46518;48.842;8.926;2023-02-11T00:01:20;99104.78;;;-0.41;80.03
1401;BME280;46518;48.842;8.926;2023-02-11T00:03:49;99113.56;;;-0.32;79.50
1401;BME280;46518;48.842;8.926;2023-02-11T00:06:18;99106.63;;;-0.32;79.23
1401;BME280;46518;48.842;8.926;2023-02-11T00:08:46;99109.97;;;-0.41;80.34
1401;BME280;46518;48.842;8.926;2023-02-11T00:11:17;99097.22;;;-0.54;80.88
1401;BME280;46518;48.842;8.926;2023-02-11T00:13:47;99094.19;;;-0.38;80.70
1401;BME280;46518;48.842;8.926;2023-02-11T00:16:16;99099.38;;;-0.59;80.71
1401;BME280;46518;48.842;8.926;2023-02-11T00:18:46;99098.91;;;-0.64;81.70
1401;BME280;46518;48.842;8.926;2023-02-11T00:21:22;99091.66;;;-0.70;82.29
1401;BME280;46518;48.842;8.926;2023-02-11T00:23:55;99095.59;;;-0.55;82.19
1401;BME280;46518;48.842;8.926;2023-02-11T00:26:29;99117.09;;;-0.33;81.69
1401;BME280;46518;48.842;8.926;2023-02-11T00:29:00;99101.44;;;-0.53;82.22
1401;BME280;46518;48.842;8.926;2023-02-11T00:31:31;99074.19;;;-0.57;82.13
1401;BME280;46518;48.842;8.926;2023-02-11T00:34:00;99080.97;;;-0.45;81.32
1401;BME280;46518;48.842;8.926;2023-02-11T00:36:30;99081.63;;;-0.43;81.01
1401;BME280;46518;48.842;8.926;2023-02-11T00:38:59;99106.25;;;-0.27;80.61
1401;BME280;46518;48.842;8.926;2023-02-11T00:41:30;99091.53;;;-0.27;80.11
1401;BME280;46518;48.842;8.926;2023-02-11T00:43:59;99097.78;;;-0.29;79.94
1401;BME280;46518;48.842;8.926;2023-02-11T00:46:28;99087.38;;;-0.39;80.64
1401;BME280;46518;48.842;8.926;2023-02-11T00:48:58;99091.22;;;-0.33;79.70
1401;BME280;46518;48.842;8.926;2023-02-11T00:51:27;99085.38;;;-0.56;80.73
1401;BME280;46518;48.842;8.926;2023-02-11T00:53:56;99114.59;;;-0.45;81.00
1401;BME280;46518;48.842;8.926;2023-02-11T00:56:25;99108.19;;;-0.40;80.21
1401;BME280;46518;48.842;8.926;2023-02-11T00:58:56;99099.31;;;-0.27;79.42
1401;BME280;46518;48.842;8.926;2023-02-11T01:01:26;99101.69;;;-0.56;80.28
1401;BME280;46518;48.842;8.926;2023-02-11T01:03:55;99104.47;;;-0.48;80.36
1401;BME280;46518;48.842;8.926;2023-02-11T01:06:24;99100.94;;;-0.47;81.33
1401;BME280;46518;48.842;8.926;2023-02-11T01:08:53;99082.47;;;-0.42;79.39
1401;BME280;46518;48.842;8.926;2023-02-11T01:11:24;99079.78;;;-0.31;79.30
1401;BME280;46518;48.842;8.926;2023-02-11T01:13:53;99073.50;;;-0.38;79.99
1401;BME280;46518;48.842;8.926;2023-02-11T01:16:24;99078.09;;;-0.41;79.83
1401;BME280;46518;48.842;8.926;2023-02-11T01:18:53;99063.91;;;-0.47;80.33
1401;BME280;46518;48.842;8.926;2023-02-11T01:21:21;99059.81;;;-0.50;79.78
1401;BME280;46518;48.842;8.926;2023-02-11T01:23:51;99057.09;;;-0.48;80.13
1401;BME280;46518;48.842;8.926;2023-02-11T01:26:20;99054.44;;;-0.58;80.06
1401;BME280;46518;48.842;8.926;2023-02-11T01:28:49;99048.34;;;-0.57;80.80
1401;BME280;46518;48.842;8.926;2023-02-11T01:31:18;99060.38;;;-0.46;81.09
1401;BME280;46518;48.842;8.926;2023-02-11T01:33:49;99061.94;;;-0.76;81.86
1401;BME280;46518;48.842;8.926;2023-02-11T01:36:19;99060.78;;;-0.83;83.41
1401;BME280;46518;48.842;8.926;2023-02-11T01:38:48;99056.59;;;-0.84;83.68
1401;BME280;46518;48.842;8.926;2023-02-11T01:41:19;99051.28;;;-0.82;82.43
1401;BME280;46518;48.842;8.926;2023-02-11T01:43:49;99054.25;;;-0.87;81.79
1401;BME280;46518;48.842;8.926;2023-02-11T01:46:32;99036.19;;;-0.98;82.04
1401;BME280;46518;48.842;8.926;2023-02-11T01:49:07;99057.66;;;-0.87;81.65
1401;BME280;46518;48.842;8.926;2023-02-11T01:51:39;99050.88;;;-0.99;81.75
1401;BME280;46518;48.842;8.926;2023-02-11T01:54:10;99044.09;;;-1.00;81.79
1401;BME280;46518;48.842;8.926;2023-02-11T01:56:59;99039.91;;;-1.12;82.16
1401;BME280;46518;48.842;8.926;2023-02-11T01:59:54;99032.81;;;-1.10;83.07
1401;BME280;46518;48.842;8.926;2023-02-11T02:02:29;99038.25;;;-1.13;83.34
1401;BME280;46518;48.842;8.926;2023-02-11T02:05:04;99033.94;;;-1.24;82.76
1401;BME280;46518;48.842;8.926;2023-02-11T02:07:40;99029.03;;;-1.27;82.82
1401;BME280;46518;48.842;8.926;2023-02-11T02:10:16;99040.91;;;-1.36;83.85
1401;BME280;46518;48.842;8.926;2023-02-11T02:12:46;99022.13;;;-1.38;83.90
1401;BME280;46518;48.842;8.926;2023-02-11T02:15:24;99018.66;;;-1.59;85.62
1401;BME280;46518;48.842;8.926;2023-02-11T02:18:17;99033.25;;;-1.26;85.31
1401;BME280;46518;48.842;8.926;2023-02-11T02:21:37;99031.16;;;-1.32;85.62
1401;BME280;46518;48.842;8.926;2023-02-11T02:24:25;99018.28;;;-1.43;86.91
1401;BME280;46518;48.842;8.926;2023-02-11T02:27:17;99029.59;;;-1.23;86.72
1401;BME280;46518;48.842;8.926;2023-02-11T02:30:04;99028.44;;;-0.98;85.61
1401;BME280;46518;48.842;8.926;2023-02-11T02:32:46;99011.94;;;-1.07;85.52
1401;BME280;46518;48.842;8.926;2023-02-11T02:35:25;99018.84;;;-1.08;85.67
1401;BME280;46518;48.842;8.926;2023-02-11T02:38:01;99025.06;;;-1.10;85.24
1401;BME280;46518;48.842;8.926;2023-02-11T02:40:39;99010.81;;;-1.25;86.15
1401;BME280;46518;48.842;8.926;2023-02-11T02:43:10;99019.50;;;-1.26;86.07
1401;BME280;46518;48.842;8.926;2023-02-11T02:45:39;99027.72;;;-1.21;86.90
1401;BME280;46518;48.842;8.926;2023-02-11T02:48:24;99019.16;;;-1.22;86.89
1401;BME280;46518;48.842;8.926;2023-02-11T02:51:02;99001.16;;;-1.12;86.32
1401;BME280;46518;48.842;8.926;2023-02-11T02:53:43;98993.78;;;-0.96;85.77
1401;BME280;46518;48.842;8.926;2023-02-11T02:56:25;98990.44;;;-0.87;84.45
1401;BME280;46518;48.842;8.926;2023-02-11T02:59:18;99001.16;;;-0.91;84.80
1401;BME280;46518;48.842;8.926;2023-02-11T03:01:56;98985.69;;;-1.02;85.39
1401;BME280;46518;48.842;8.926;2023-02-11T03:04:39;98991.75;;;-1.13;85.91
1401;BME280;46518;48.842;8.926;2023-02-11T03:07:14;98988.09;;;-1.11;86.08
1401;BME280;46518;48.842;8.926;2023-02-11T03:09:52;98991.44;;;-1.20;87.45
1401;BME280;46518;48.842;8.926;2023-02-11T03:12:23;98986.38;;;-1.21;87.07
1401;BME280;46518;48.842;8.926;2023-02-11T03:14:53;99001.09;;;-1.01;87.19
1401;BME280;46518;48.842;8.926;2023-02-11T03:17:23;98976.88;;;-1.21;87.34
1401;BME280;46518;48.842;8.926;2023-02-11T03:19:56;98978.00;;;-1.46;88.30
1401;BME280;46518;48.842;8.926;2023-02-11T03:22:29;98948.47;;;-1.53;89.04
1401;BME280;46518;48.842;8.926;2023-02-11T03:25:00;98956.63;;;-1.37;88.81
1401;BME280;46518;48.842;8.926;2023-02-11T03:27:33;98944.53;;;-1.36;87.88
1401;BME280;46518;48.842;8.926;2023-02-11T03:30:11;98957.78;;;-1.29;88.54
1401;BME280;46518;48.842;8.926;2023-02-11T03:32:46;98972.13;;;-1.16;86.11
1401;BME280;46518;48.842;8.926;2023-02-11T03:35:20;98964.56;;;-1.28;84.68
1401;BME280;46518;48.842;8.926;2023-02-11T03:37:53;98967.94;;;-1.49;83.83
1401;BME280;46518;48.842;8.926;2023-02-11T03:40:27;98958.34;;;-1.58;85.27
1401;BME280;46518;48.842;8.926;2023-02-11T03:43:00;98975.53;;;-1.36;85.80
1401;BME280;46518;48.842;8.926;2023-02-11T03:45:31;98979.81;;;-1.58;87.18
1401;BME280;46518;48.842;8.926;2023-02-11T03:48:03;98975.09;;;-1.53;86.60
1401;BME280;46518;48.842;8.926;2023-02-11T03:50:35;98969.72;;;-1.61;87.44
1401;BME280;46518;48.842;8.926;2023-02-11T03:53:08;98968.63;;;-1.47;87.76
1401;BME280;46518;48.842;8.926;2023-02-11T03:55:38;98969.63;;;-1.70;87.28
1401;BME280;46518;48.842;8.926;2023-02-11T03:58:08;98961.38;;;-1.53;88.27
1401;BME280;46518;48.842;8.926;2023-02-11T04:00:40;98955.94;;;-1.50;87.98
1401;BME280;46518;48.842;8.926;2023-02-11T04:03:10;98984.78;;;-1.34;87.93
1401;BME280;46518;48.842;8.926;2023-02-11T04:05:40;98982.38;;;-1.46;86.96
1401;BME280;46518;48.842;8.926;2023-02-11T04:08:09;98992.09;;;-1.50;87.08
1401;BME280;46518;48.842;8.926;2023-02-11T04:10:38;98993.06;;;-1.62;87.88
1401;BME280;46518;48.842;8.926;2023-02-11T04:13:07;98997.78;;;-1.56;88.03
1401;BME280;46518;48.842;8.926;2023-02-11T04:15:35;98995.13;;;-1.45;88.25
1401;BME280;46518;48.842;8.926;2023-02-11T04:18:04;98992.19;;;-1.40;88.23
1401;BME280;46518;48.842;8.926;2023-02-11T04:20:33;98995.28;;;-1.14;87.36
1401;BME280;46518;48.842;8.926;2023-02-11T04:23:03;99003.72;;;-1.12;86.84
1401;BME280;46518;48.842;8.926;2023-02-11T04:25:32;98982.72;;;-1.19;87.46
1401;BME280;46518;48.842;8.926;2023-02-11T04:31:07;98993.47;;;-0.81;87.75
1401;BME280;46518;48.842;8.926;2023-02-11T04:33:38;98965.53;;;-0.88;87.88
1401;BME280;46518;48.842;8.926;2023-02-11T04:36:07;98970.31;;;-0.62;87.46
1401;BME280;46518;48.842;8.926;2023-02-11T04:38:38;98984.63;;;-0.58;88.15
1401;BME280;46518;48.842;8.926;2023-02-11T04:41:07;98978.56;;;-0.47;89.63
1401;BME280;46518;48.842;8.926;2023-02-11T04:43:36;98961.81;;;-0.43;88.17
1401;BME280;46518;48.842;8.926;2023-02-11T04:46:05;98954.84;;;-0.22;87.11
1401;BME280;46518;48.842;8.926;2023-02-11T04:48:34;98980.31;;;-0.17;86.87
1401;BME280;46518;48.842;8.926;2023-02-11T04:51:03;98981.22;;;-0.28;87.75
1401;BME280;46518;48.842;8.926;2023-02-11T04:53:32;98989.97;;;-0.19;87.95
1401;BME280;46518;48.842;8.926;2023-02-11T04:56:03;98988.34;;;-0.20;87.43
1401;BME280;46518;48.842;8.926;2023-02-11T04:58:32;98977.34;;;-0.12;87.30
1401;BME280;46518;48.842;8.926;2023-02-11T05:01:05;98973.53;;;-0.08;85.77
1401;BME280;46518;48.842;8.926;2023-02-11T05:03:35;98971.19;;;-0.21;86.44
1401;BME280;46518;48.842;8.926;2023-02-11T05:06:04;98964.16;;;0.01;86.79
1401;BME280;46518;48.842;8.926;2023-02-11T05:08:33;98958.03;;;0.02;85.65
1401;BME280;46518;48.842;8.926;2023-02-11T05:11:04;98946.06;;;0.01;85.94
1401;BME280;46518;48.842;8.926;2023-02-11T05:13:33;98961.50;;;0.31;85.46
1401;BME280;46518;48.842;8.926;2023-02-11T05:16:04;98950.31;;;0.21;85.37
1401;BME280;46518;48.842;8.926;2023-02-11T05:18:36;98940.22;;;0.08;86.09
1401;BME280;46518;48.842;8.926;2023-02-11T05:21:11;98921.94;;;0.19;86.12
1401;BME280;46518;48.842;8.926;2023-02-11T05:23:42;98925.50;;;0.18;86.53
1401;BME280;46518;48.842;8.926;2023-02-11T05:26:14;98923.59;;;0.20;86.69
1401;BME280;46518;48.842;8.926;2023-02-11T05:28:45;98909.00;;;0.10;86.25
1401;BME280;46518;48.842;8.926;2023-02-11T05:31:14;98902.91;;;0.20;85.90
1401;BME280;46518;48.842;8.926;2023-02-11T05:33:45;98906.56;;;0.47;85.11
1401;BME280;46518;48.842;8.926;2023-02-11T05:36:14;98888.31;;;0.39;84.30
1401;BME280;46518;48.842;8.926;2023-02-11T05:38:45;98902.50;;;0.25;85.40
1401;BME280;46518;48.842;8.926;2023-02-11T05:41:17;98910.25;;;0.45;84.98
1401;BME280;46518;48.842;8.926;2023-02-11T05:43:47;98889.25;;;0.57;84.21
1401;BME280;46518;48.842;8.926;2023-02-11T05:46:17;98913.94;;;0.71;83.12
1401;BME280;46518;48.842;8.926;2023-02-11T05:48:47;98930.69;;;0.86;82.74
1401;BME280;46518;48.842;8.926;2023-02-11T05:51:17;98934.94;;;0.78;81.43
1401;BME280;46518;48.842;8.926;2023-02-11T05:53:51;98918.81;;;0.74;81.15
1401;BME280;46518;48.842;8.926;2023-02-11T05:56:24;98925.78;;;0.74;80.27
1401;BME280;46518;48.842;8.926;2023-02-11T05:58:57;98916.41;;;0.53;80.93
1401;BME280;46518;48.842;8.926;2023-02-11T06:01:28;98940.53;;;0.73;82.00
1401;BME280;46518;48.842;8.926;2023-02-11T06:03:58;98927.97;;;0.59;82.64
1401;BME280;46518;48.842;8.926;2023-02-11T06:06:28;98915.84;;;0.59;82.53
1401;BME280;46518;48.842;8.926;2023-02-11T06:09:00;98940.41;;;0.55;82.25
1401;BME280;46518;48.842;8.926;2023-02-11T06:11:31;98922.66;;;0.51;82.95
1401;BME280;46518;48.842;8.926;2023-02-11T06:14:02;98947.91;;;0.68;82.73
1401;BME280;46518;48.842;8.926;2023-02-11T06:16:32;98933.84;;;0.71;81.95
1401;BME280;46518;48.842;8.926;2023-02-11T06:19:04;98935.34;;;0.73;80.68
1401;BME280;46518;48.842;8.926;2023-02-11T06:21:35;98958.50;;;0.94;79.96
1401;BME280;46518;48.842;8.926;2023-02-11T06:24:12;98939.84;;;0.91;79.92
1401;BME280;46518;48.842;8.926;2023-02-11T06:26:53;98945.41;;;1.15;79.59
1401;BME280;46518;48.842;8.926;2023-02-11T06:29:25;98918.78;;;1.03;79.66
1401;BME280;46518;48.842;8.926;2023-02-11T06:31:56;98927.53;;;1.02;79.60
1401;BME280;46518;48.842;8.926;2023-02-11T06:34:27;98908.81;;;1.08;79.93
1401;BME280;46518;48.842;8.926;2023-02-11T06:36:58;98915.19;;;1.24;79.67
1401;BME280;46518;48.842;8.926;2023-02-11T06:39:27;98917.63;;;1.35;79.73
1401;BME280;46518;48.842;8.926;2023-02-11T06:41:59;98920.75;;;1.39;78.85
1401;BME280;46518;48.842;8.926;2023-02-11T06:44:29;98933.09;;;1.55;78.66
1401;BME280;46518;48.842;8.926;2023-02-11T06:47:01;98938.56;;;1.61;78.48
1401;BME280;46518;48.842;8.926;2023-02-11T06:49:32;98927.84;;;1.37;77.77
1401;BME280;46518;48.842;8.926;2023-02-11T06:52:03;98936.66;;;1.54;79.09
1401;BME280;46518;48.842;8.926;2023-02-11T06:54:34;98951.59;;;1.42;78.53
1401;BME280;46518;48.842;8.926;2023-02-11T06:57:07;98945.41;;;0.96;81.24
1401;BME280;46518;48.842;8.926;2023-02-11T06:59:38;98950.63;;;0.76;83.04
1401;BME280;46518;48.842;8.926;2023-02-11T07:02:09;98938.47;;;0.67;83.63
1401;BME280;46518;48.842;8.926;2023-02-11T07:04:39;98963.44;;;0.68;85.31
1401;BME280;46518;48.842;8.926;2023-02-11T07:07:10;98957.13;;;1.00;83.68
1401;BME280;46518;48.842;8.926;2023-02-11T07:09:44;98957.41;;;1.16;82.98
1401;BME280;46518;48.842;8.926;2023-02-11T07:12:16;98947.72;;;0.99;83.39
1401;BME280;46518;48.842;8.926;2023-02-11T07:14:48;98949.91;;;1.13;83.03
1401;BME280;46518;48.842;8.926;2023-02-11T07:17:18;98921.38;;;1.13;82.96
1401;BME280;46518;48.842;8.926;2023-02-11T07:19:51;98944.28;;;1.27;82.01
1401;BME280;46518;48.842;8.926;2023-02-11T07:22:24;98949.41;;;1.37;82.18
1401;BME280;46518;48.842;8.926;2023-02-11T07:24:54;98930.63;;;1.25;81.77
1401;BME280;46518;48.842;8.926;2023-02-11T07:27:26;98932.28;;;1.07;81.67
1401;BME280;46518;48.842;8.926;2023-02-11T07:29:57;98965.28;;;1.24;81.81
1401;BME280;46518;48.842;8.926;2023-02-11T07:32:30;98953.81;;;1.27;81.69
1401;BME280;46518;48.842;8.926;2023-02-11T07:35:02;98982.56;;;1.53;81.90
1401;BME280;46518;48.842;8.926;2023-02-11T07:37:33;98980.69;;;1.45;81.54
1401;BME280;46518;48.842;8.926;2023-02-11T07:40:04;98974.13;;;1.41;81.54
1401;BME280;46518;48.842;8.926;2023-02-11T07:42:37;98965.53;;;1.41;81.55
1401;BME280;46518;48.842;8.926;2023-02-11T07:45:09;98972.75;;;1.47;81.54
1401;BME280;46518;48.842;8.926;2023-02-11T07:47:43;98968.97;;;1.32;81.95
1401;BME280;46518;48.842;8.926;2023-02-11T07:50:15;98973.34;;;1.31;83.17
1401;BME280;46518;48.842;8.926;2023-02-11T07:52:44;98961.19;;;1.22;84.17
1401;BME280;46518;48.842;8.926;2023-02-11T07:55:14;98971.34;;;1.05;85.68
1401;BME280;46518;48.842;8.926;2023-02-11T07:57:47;98959.31;;;0.95;85.73
1401;BME280;46518;48.842;8.926;2023-02-11T08:00:18;98946.22;;;0.96;85.96
1401;BME280;46518;48.842;8.926;2023-02-11T08:02:47;98959.44;;;1.22;86.70
1401;BME280;46518;48.842;8.926;2023-02-11T08:05:17;98950.66;;;1.43;85.39
1401;BME280;46518;48.842;8.926;2023-02-11T08:07:50;98958.06;;;1.65;83.84
1401;BME280;46518;48.842;8.926;2023-02-11T08:10:19;98947.06;;;1.54;83.33
1401;BME280;46518;48.842;8.926;2023-02-11T08:12:51;98960.72;;;1.83;82.80
1401;BME280;46518;48.842;8.926;2023-02-11T08:15:22;98959.41;;;1.69;82.82
1401;BME280;46518;48.842;8.926;2023-02-11T08:17:53;98948.25;;;1.59;82.74
1401;BME280;46518;48.842;8.926;2023-02-11T08:20:23;98931.38;;;1.45;83.41
1401;BME280;46518;48.842;8.926;2023-02-11T08:22:53;98948.84;;;1.53;84.57
1401;BME280;46518;48.842;8.926;2023-02-11T08:25:24;98937.88;;;1.59;82.50
1401;BME280;46518;48.842;8.926;2023-02-11T08:27:56;98936.63;;;1.63;82.58
1401;BME280;46518;48.842;8.926;2023-02-11T08:30:27;98943.59;;;1.63;83.34
1401;BME280;46518;48.842;8.926;2023-02-11T08:32:58;98951.50;;;1.71;83.42
1401;BME280;46518;48.842;8.926;2023-02-11T08:35:29;98935.78;;;1.72;83.96
1401;BME280;46518;48.842;8.926;2023-02-11T08:38:01;98954.19;;;1.79;83.61
1401;BME280;46518;48.842;8.926;2023-02-11T08:40:31;98950.28;;;1.65;83.40
1401;BME280;46518;48.842;8.926;2023-02-11T08:43:03;98936.78;;;1.62;84.44
1401;BME280;46518;48.842;8.926;2023-02-11T08:45:36;98945.53;;;1.61;85.47
1401;BME280;46518;48.842;8.926;2023-02-11T08:48:06;98935.28;;;1.87;85.20
1401;BME280;46518;48.842;8.926;2023-02-11T08:50:38;98958.16;;;2.29;83.37
1401;BME280;46518;48.842;8.926;2023-02-11T08:53:09;98932.78;;;2.23;82.67
1401;BME280;46518;48.842;8.926;2023-02-11T08:55:47;98925.59;;;2.07;82.29
1401;BME280;46518;48.842;8.926;2023-02-11T08:58:21;98952.28;;;2.27;82.19
1401;BME280;46518;48.842;8.926;2023-02-11T09:00:55;98961.06;;;2.26;82.41
1401;BME280;46518;48.842;8.926;2023-02-11T09:03:40;98957.94;;;2.22;82.80
1401;BME280;46518;48.842;8.926;2023-02-11T09:06:27;98954.16;;;2.34;81.80
1401;BME280;46518;48.842;8.926;2023-02-11T09:09:22;98957.34;;;2.46;81.32
1401;BME280;46518;48.842;8.926;2023-02-11T09:12:13;98961.75;;;2.64;81.31
1401;BME280;46518;48.842;8.926;2023-02-11T09:18:45;98939.00;;;2.84;80.19
1401;BME280;46518;48.842;8.926;2023-02-11T09:22:55;98944.66;;;2.79;80.18
1401;BME280;46518;48.842;8.926;2023-02-11T09:26:21;98948.34;;;3.12;80.03
1401;BME280;46518;48.842;8.926;2023-02-11T09:29:42;98932.81;;;3.29;78.94
1401;BME280;46518;48.842;8.926;2023-02-11T09:47:50;98940.00;;;3.69;77.63
1401;BME280;46518;48.842;8.926;2023-02-11T09:50:57;98933.56;;;3.81;75.97
1401;BME280;46518;48.842;8.926;2023-02-11T09:53:48;98948.94;;;4.01;75.28
1401;BME280;46518;48.842;8.926;2023-02-11T09:57:08;98958.63;;;4.25;74.67
1401;BME280;46518;48.842;8.926;2023-02-11T10:00:02;98968.19;;;4.16;74.32
1401;BME280;46518;48.842;8.926;2023-02-11T10:06:16;98975.16;;;4.58;73.09
1401;BME280;46518;48.842;8.926;2023-02-11T10:09:07;98959.66;;;4.57;72.15
1401;BME280;46518;48.842;8.926;2023-02-11T10:15:20;98966.84;;;5.20;73.22
1401;BME280;46518;48.842;8.926;2023-02-11T10:18:38;98978.28;;;5.27;70.52
1401;BME280;46518;48.842;8.926;2023-02-11T10:21:28;98954.78;;;5.27;70.02
1401;BME280;46518;48.842;8.926;2023-02-11T10:24:13;98959.25;;;5.66;68.54
1401;BME280;46518;48.842;8.926;2023-02-11T10:26:46;98966.56;;;5.71;67.00
1401;BME280;46518;48.842;8.926;2023-02-11T10:29:34;98958.34;;;5.98;67.01
1401;BME280;46518;48.842;8.926;2023-02-11T10:32:41;98968.38;;;6.18;64.79
1401;BME280;46518;48.842;8.926;2023-02-11T10:42:37;98956.72;;;6.29;64.38
1401;BME280;46518;48.842;8.926;2023-02-11T10:45:32;98968.41;;;6.41;65.00
1401;BME280;46518;48.842;8.926;2023-02-11T10:51:30;98938.41;;;6.60;63.93
1401;BME280;46518;48.842;8.926;2023-02-11T10:54:31;98917.53;;;6.52;65.17
1401;BME280;46518;48.842;8.926;2023-02-11T11:11:03;98918.78;;;7.17;62.89
1401;BME280;46518;48.842;8.926;2023-02-11T11:13:33;98927.47;;;7.32;61.79
1401;BME280;46518;48.842;8.926;2023-02-11T11:20:22;98891.19;;;6.91;63.06
1401;BME280;46518;48.842;8.926;2023-02-11T11:23:15;98914.53;;;7.16;62.85
1401;BME280;46518;48.842;8.926;2023-02-11T11:26:10;98923.94;;;7.25;61.69
1401;BME280;46518;48.842;8.926;2023-02-11T11:28:56;98923.22;;;7.46;63.11
1401;BME280;46518;48.842;8.926;2023-02-11T11:31:30;98927.91;;;7.50;61.83
1401;BME280;46518;48.842;8.926;2023-02-11T11:34:04;98922.59;;;7.59;61.94
1401;BME280;46518;48.842;8.926;2023-02-11T11:36:40;98919.78;;;7.75;61.20
1401;BME280;46518;48.842;8.926;2023-02-11T11:39:21;98922.84;;;7.78;60.31
1401;BME280;46518;48.842;8.926;2023-02-11T11:41:54;98923.41;;;7.59;61.25
1401;BME280;46518;48.842;8.926;2023-02-11T11:44:29;98919.34;;;7.71;61.68
1401;BME280;46518;48.842;8.926;2023-02-11T11:47:24;98921.50;;;7.68;61.43
1401;BME280;46518;48.842;8.926;2023-02-11T11:50:10;98922.69;;;7.65;61.60
1401;BME280;46518;48.842;8.926;2023-02-11T11:52:45;98917.88;;;7.84;60.89
1401;BME280;46518;48.842;8.926;2023-02-11T11:55:18;98913.19;;;7.79;62.49
1401;BME280;46518;48.842;8.926;2023-02-11T11:57:49;98910.22;;;7.67;63.73
1401;BME280;46518;48.842;8.926;2023-02-11T12:05:47;98915.28;;;7.24;63.69
1401;BME280;46518;48.842;8.926;2023-02-11T12:10:24;98904.44;;;7.57;65.43
1401;BME280;46518;48.842;8.926;2023-02-11T12:13:07;98913.53;;;7.76;63.76
1401;BME280;46518;48.842;8.926;2023-02-11T12:15:46;98902.13;;;7.84;62.25
1401;BME280;46518;48.842;8.926;2023-02-11T12:42:22;98901.59;;;8.25;60.92
1401;BME280;46518;48.842;8.926;2023-02-11T12:50:15;98912.13;;;8.46;62.07
1401;BME280;46518;48.842;8.926;2023-02-11T12:53:08;98902.88;;;8.29;64.72
1401;BME280;46518;48.842;8.926;2023-02-11T12:55:43;98910.84;;;8.20;62.49
1401;BME280;46518;48.842;8.926;2023-02-11T12:58:17;98899.03;;;8.10;62.32
1401;BME280;46518;48.842;8.926;2023-02-11T13:00:59;98908.00;;;8.37;62.35
1401;BME280;46518;48.842;8.926;2023-02-11T13:03:34;98904.59;;;8.21;62.54
1401;BME280;46518;48.842;8.926;2023-02-11T13:10:08;98882.09;;;7.76;65.12
1401;BME280;46518;48.842;8.926;2023-02-11T13:13:08;98863.84;;;7.68;64.65
1401;BME280;46518;48.842;8.926;2023-02-11T13:16:21;98874.56;;;7.88;65.51
1401;BME280;46518;48.842;8.926;2023-02-11T13:20:17;98861.78;;;7.63;64.23
1401;BME280;46518;48.842;8.926;2023-02-11T13:24:14;98861.13;;;7.61;64.44
1401;BME280;46518;48.842;8.926;2023-02-11T13:26:56;98863.69;;;7.40;65.28
1401;BME280;46518;48.842;8.926;2023-02-11T13:36:14;98854.78;;;7.34;65.07
1401;BME280;46518;48.842;8.926;2023-02-11T13:39:14;98859.25;;;7.55;64.30
1401;BME280;46518;48.842;8.926;2023-02-11T13:42:01;98850.13;;;7.51;67.47
1401;BME280;46518;48.842;8.926;2023-02-11T13:44:34;98860.97;;;7.48;65.97
1401;BME280;46518;48.842;8.926;2023-02-11T13:47:28;98855.56;;;7.49;63.59
1401;BME280;46518;48.842;8.926;2023-02-11T13:50:04;98858.88;;;7.58;64.73
1401;BME280;46518;48.842;8.926;2023-02-11T13:52:44;98851.09;;;7.80;64.44
1401;BME280;46518;48.842;8.926;2023-02-11T13:55:20;98842.78;;;7.61;64.13
1401;BME280;46518;48.842;8.926;2023-02-11T14:07:37;98849.16;;;7.88;62.55
1401;BME280;46518;48.842;8.926;2023-02-11T14:10:53;98846.28;;;7.83;61.05
1401;BME280;46518;48.842;8.926;2023-02-11T14:13:26;98850.88;;;7.81;63.68
1401;BME280;46518;48.842;8.926;2023-02-11T14:16:07;98860.69;;;8.09;64.75
1401;BME280;46518;48.842;8.926;2023-02-11T14:19:00;98854.00;;;8.28;61.54
1401;BME280;46518;48.842;8.926;2023-02-11T14:21:42;98850.44;;;8.35;60.39
1401;BME280;46518;48.842;8.926;2023-02-11T14:24:50;98866.00;;;8.37;59.48
1401;BME280;46518;48.842;8.926;2023-02-11T14:27:36;98861.19;;;8.19;59.26
1401;BME280;46518;48.842;8.926;2023-02-11T14:30:48;98861.13;;;8.12;60.11
1401;BME280;46518;48.842;8.926;2023-02-11T14:34:06;98845.84;;;7.80;60.61
1401;BME280;46518;48.842;8.926;2023-02-11T14:37:13;98855.53;;;7.79;59.55
1401;BME280;46518;48.842;8.926;2023-02-11T14:40:06;98843.34;;;7.71;60.04
1401;BME280;46518;48.842;8.926;2023-02-11T14:42:51;98880.03;;;7.71;59.60
1401;BME280;46518;48.842;8.926;2023-02-11T14:45:33;98869.56;;;7.71;59.65
1401;BME280;46518;48.842;8.926;2023-02-11T14:48:15;98864.50;;;7.55;60.23
1401;BME280;46518;48.842;8.926;2023-02-11T14:51:00;98850.78;;;7.38;61.36
1401;BME280;46518;48.842;8.926;2023-02-11T14:53:45;98860.00;;;7.49;60.26
1401;BME280;46518;48.842;8.926;2023-02-11T14:56:28;98866.13;;;7.56;59.55
1401;BME280;46518;48.842;8.926;2023-02-11T14:59:19;98876.41;;;7.57;60.76
1401;BME280;46518;48.842;8.926;2023-02-11T15:02:20;98875.09;;;7.47;62.61
1401;BME280;46518;48.842;8.926;2023-02-11T15:04:54;98867.41;;;7.30;62.56
1401;BME280;46518;48.842;8.926;2023-02-11T15:07:51;98881.22;;;7.54;61.67
1401;BME280;46518;48.842;8.926;2023-02-11T15:10:40;98895.03;;;7.63;62.53
1401;BME280;46518;48.842;8.926;2023-02-11T15:13:35;98900.91;;;7.80;61.73
1401;BME280;46518;48.842;8.926;2023-02-11T15:16:26;98893.38;;;7.91;61.93
1401;BME280;46518;48.842;8.926;2023-02-11T15:19:03;98897.09;;;7.82;62.85
1401;BME280;46518;48.842;8.926;2023-02-11T15:21:39;98902.34;;;7.82;62.64
1401;BME280;46518;48.842;8.926;2023-02-11T15:24:25;98909.81;;;7.85;62.63
1401;BME280;46518;48.842;8.926;2023-02-11T15:27:00;98905.13;;;7.81;64.23
1401;BME280;46518;48.842;8.926;2023-02-11T15:29:35;98902.19;;;7.69;63.52
1401;BME280;46518;48.842;8.926;2023-02-11T15:32:12;98902.19;;;7.54;63.70
1401;BME280;46518;48.842;8.926;2023-02-11T15:34:43;98913.28;;;7.56;64.08
1401;BME280;46518;48.842;8.926;2023-02-11T15:37:13;98914.91;;;7.57;63.61
1401;BME280;46518;48.842;8.926;2023-02-11T15:39:44;98921.59;;;7.45;64.09
1401;BME280;46518;48.842;8.926;2023-02-11T15:42:17;98926.19;;;7.43;64.32
1401;BME280;46518;48.842;8.926;2023-02-11T15:44:46;98917.63;;;7.19;64.94
1401;BME280;46518;48.842;8.926;2023-02-11T15:47:28;98930.72;;;7.19;65.07
1401;BME280;46518;48.842;8.926;2023-02-11T15:49:57;98923.47;;;7.21;65.88
1401;BME280;46518;48.842;8.926;2023-02-11T16:04:52;98932.03;;;7.15;65.95
1401;BME280;46518;48.842;8.926;2023-02-11T16:10:56;98933.75;;;7.08;66.21
1401;BME280;46518;48.842;8.926;2023-02-11T16:13:31;98936.91;;;7.18;65.10
1401;BME280;46518;48.842;8.926;2023-02-11T16:16:03;98925.69;;;6.95;65.78
1401;BME280;46518;48.842;8.926;2023-02-11T16:18:42;98945.91;;;7.01;65.66
1401;BME280;46518;48.842;8.926;2023-02-11T16:21:36;98922.44;;;6.93;65.91
1401;BME280;46518;48.842;8.926;2023-02-11T16:24:18;98927.59;;;7.01;65.56